sensor_id;sensor_type;location;lat;lon;timestamp;temperature;humidity
20915;DHT22;10617;52.032;5.298;2023-03-23T00:19:07;12.00;99.90
20915;DHT22;10617;52.032;5.298;2023-03-23T00:23:08;12.00;99.90
20915;DHT22;10617;52.032;5.298;2023-03-23T00:27:09;12.00;99.90
20915;DHT22;10617;52.032;5.298;2023-03-23T00:31:12;12.00;99.90
20915;DHT22;10617;52.032;5.298;2023-03-23T00:35:13;12.00;99.90
20915;DHT22;10617;52.032;5.298;2023-03-23T00:39:15;12.10;99.90
20915;DHT22;10617;52.032;5.298;2023-03-23T00:43:17;12.10;99.90
20915;DHT22;10617;52.032;5.298;2023-03-23T00:47:18;12.10;99.90
20915;DHT22;10617;52.032;5.298;2023-03-23T00:51:18;12.10;99.90
20915;DHT22;10617;52.032;5.298;2023-03-23T00:55:19;12.10;99.90
20915;DHT22;10617;52.032;5.298;2023-03-23T00:59:20;12.20;99.90
20915;DHT22;10617;52.032;5.298;2023-03-23T01:03:21;12.20;99.90
20915;DHT22;10617;52.032;5.298;2023-03-23T01:07:21;12.20;99.90
20915;DHT22;10617;52.032;5.298;2023-03-23T01:11:23;12.20;99.90
20915;DHT22;10617;52.032;5.298;2023-03-23T01:15:25;12.20;99.90
20915;DHT22;10617;52.032;5.298;2023-03-23T01:19:25;12.20;99.90
20915;DHT22;10617;52.032;5.298;2023-03-23T01:23:26;12.20;99.90
20915;DHT22;10617;52.032;5.298;2023-03-23T01:27:26;12.20;99.90
20915;DHT22;10617;52.032;5.298;2023-03-23T01:31:27;12.30;99.90
20915;DHT22;10617;52.032;5.298;2023-03-23T01:35:27;12.30;99.90
20915;DHT22;10617;52.032;5.298;2023-03-23T01:39:28;12.30;99.90
20915;DHT22;10617;52.032;5.298;2023-03-23T01:43:28;12.30;99.90
20915;DHT22;10617;52.032;5.298;2023-03-23T01:47:29;12.30;99.90
20915;DHT22;10617;52.032;5.298;2023-03-23T01:51:30;12.30;99.90
20915;DHT22;10617;52.032;5.298;2023-03-23T01:55:31;12.30;99.90
20915;DHT22;10617;52.032;5.298;2023-03-23T01:59:31;12.30;99.90
20915;DHT22;10617;52.032;5.298;2023-03-23T02:03:32;12.30;99.90
20915;DHT22;10617;52.032;5.298;2023-03-23T02:07:35;12.30;99.90
20915;DHT22;10617;52.032;5.298;2023-03-23T02:11:35;12.30;99.90
20915;DHT22;10617;52.032;5.298;2023-03-23T02:15:39;12.20;99.90
20915;DHT22;10617;52.032;5.298;2023-03-23T02:36:47;12.30;99.90
20915;DHT22;10617;52.032;5.298;2023-03-23T02:40:49;12.30;99.90
20915;DHT22;10617;52.032;5.298;2023-03-23T02:44:50;12.30;99.90
20915;DHT22;10617;52.032;5.298;2023-03-23T02:48:52;12.30;99.90
20915;DHT22;10617;52.032;5.298;2023-03-23T02:52:54;12.40;99.90
20915;DHT22;10617;52.032;5.298;2023-03-23T02:56:55;12.40;99.90
20915;DHT22;10617;52.032;5.298;2023-03-23T03:00:57;12.40;99.90
20915;DHT22;10617;52.032;5.298;2023-03-23T03:05:16;12.40;99.90
20915;DHT22;10617;52.032;5.298;2023-03-23T03:09:21;12.50;99.90
20915;DHT22;10617;52.032;5.298;2023-03-23T03:13:30;12.50;99.90
20915;DHT22;10617;52.032;5.298;2023-03-23T03:32:44;12.60;99.90
20915;DHT22;10617;52.032;5.298;2023-03-23T03:36:47;12.60;99.90
20915;DHT22;10617;52.032;5.298;2023-03-23T03:40:48;12.60;99.90
20915;DHT22;10617;52.032;5.298;2023-03-23T03:44:49;12.70;99.90
20915;DHT22;10617;52.032;5.298;2023-03-23T03:48:49;12.70;99.90
20915;DHT22;10617;52.032;5.298;2023-03-23T03:52:52;12.70;99.90
20915;DHT22;10617;52.032;5.298;2023-03-23T03:56:52;12.70;99.90
20915;DHT22;10617;52.032;5.298;2023-03-23T04:00:58;12.70;99.90
20915;DHT22;10617;52.032;5.298;2023-03-23T04:04:59;12.70;99.90
20915;DHT22;10617;52.032;5.298;2023-03-23T04:09:04;12.70;99.90
20915;DHT22;10617;52.032;5.298;2023-03-23T04:13:06;12.70;99.90
20915;DHT22;10617;52.032;5.298;2023-03-23T04:17:07;12.70;99.90
20915;DHT22;10617;52.032;5.298;2023-03-23T04:21:09;12.70;99.90
20915;DHT22;10617;52.032;5.298;2023-03-23T04:25:11;12.70;99.90
20915;DHT22;10617;52.032;5.298;2023-03-23T04:29:12;12.80;99.90
20915;DHT22;10617;52.032;5.298;2023-03-23T04:33:13;12.80;99.90
20915;DHT22;10617;52.032;5.298;2023-03-23T04:37:14;12.80;99.90
20915;DHT22;10617;52.032;5.298;2023-03-23T04:41:15;12.70;99.90
20915;DHT22;10617;52.032;5.298;2023-03-23T04:45:17;12.70;99.90
20915;DHT22;10617;52.032;5.298;2023-03-23T04:49:23;12.70;99.90
20915;DHT22;10617;52.032;5.298;2023-03-23T04:53:23;12.70;99.90
20915;DHT22;10617;52.032;5.298;2023-03-23T04:57:24;12.70;99.90
20915;DHT22;10617;52.032;5.298;2023-03-23T05:01:28;12.70;99.90
20915;DHT22;10617;52.032;5.298;2023-03-23T05:05:29;12.70;99.90
20915;DHT22;10617;52.032;5.298;2023-03-23T05:09:30;12.50;99.90
20915;DHT22;10617;52.032;5.298;2023-03-23T05:13:31;12.50;99.90
20915;DHT22;10617;52.032;5.298;2023-03-23T05:17:32;12.40;99.90
20915;DHT22;10617;52.032;5.298;2023-03-23T05:21:33;12.30;99.90
20915;DHT22;10617;52.032;5.298;2023-03-23T05:25:37;12.30;99.90
20915;DHT22;10617;52.032;5.298;2023-03-23T05:29:48;12.20;99.90
20915;DHT22;10617;52.032;5.298;2023-03-23T05:33:49;12.10;99.90
20915;DHT22;10617;52.032;5.298;2023-03-23T05:37:49;11.90;99.90
20915;DHT22;10617;52.032;5.298;2023-03-23T05:41:50;11.90;99.90
20915;DHT22;10617;52.032;5.298;2023-03-23T05:45:51;11.90;99.90
20915;DHT22;10617;52.032;5.298;2023-03-23T05:49:51;11.90;99.90
20915;DHT22;10617;52.032;5.298;2023-03-23T05:53:52;12.00;99.90
20915;DHT22;10617;52.032;5.298;2023-03-23T05:57:52;12.10;99.90
20915;DHT22;10617;52.032;5.298;2023-03-23T06:01:54;12.00;99.90
20915;DHT22;10617;52.032;5.298;2023-03-23T06:05:55;12.00;99.90
20915;DHT22;10617;52.032;5.298;2023-03-23T06:09:55;11.90;99.90
20915;DHT22;10617;52.032;5.298;2023-03-23T06:13:56;11.90;99.90
20915;DHT22;10617;52.032;5.298;2023-03-23T06:18:01;11.90;99.90
20915;DHT22;10617;52.032;5.298;2023-03-23T06:22:01;12.00;99.90
20915;DHT22;10617;52.032;5.298;2023-03-23T06:26:03;12.10;99.90
20915;DHT22;10617;52.032;5.298;2023-03-23T06:30:05;12.10;99.90
20915;DHT22;10617;52.032;5.298;2023-03-23T06:34:06;12.10;99.90
20915;DHT22;10617;52.032;5.298;2023-03-23T06:38:07;12.20;99.90
20915;DHT22;10617;52.032;5.298;2023-03-23T06:42:09;12.20;99.90
20915;DHT22;10617;52.032;5.298;2023-03-23T06:46:11;12.20;99.90
20915;DHT22;10617;52.032;5.298;2023-03-23T06:50:12;12.10;99.90
20915;DHT22;10617;52.032;5.298;2023-03-23T06:54:12;12.00;99.90
20915;DHT22;10617;52.032;5.298;2023-03-23T06:58:13;11.90;99.90
20915;DHT22;10617;52.032;5.298;2023-03-23T07:02:13;11.80;99.90
20915;DHT22;10617;52.032;5.298;2023-03-23T07:06:14;11.80;99.90
20915;DHT22;10617;52.032;5.298;2023-03-23T07:10:16;11.80;99.90
20915;DHT22;10617;52.032;5.298;2023-03-23T07:14:16;11.80;99.90
20915;DHT22;10617;52.032;5.298;2023-03-23T07:18:17;11.80;99.90
20915;DHT22;10617;52.032;5.298;2023-03-23T07:22:18;11.90;99.90
20915;DHT22;10617;52.032;5.298;2023-03-23T07:26:19;11.90;99.90
20915;DHT22;10617;52.032;5.298;2023-03-23T07:30:20;11.90;99.90
20915;DHT22;10617;52.032;5.298;2023-03-23T07:34:21;11.80;99.90
20915;DHT22;10617;52.032;5.298;2023-03-23T07:38:21;11.70;99.90
20915;DHT22;10617;52.032;5.298;2023-03-23T07:42:22;11.70;99.90
20915;DHT22;10617;52.032;5.298;2023-03-23T07:46:22;11.70;99.90
20915;DHT22;10617;52.032;5.298;2023-03-23T07:50:23;11.80;99.90
20915;DHT22;10617;52.032;5.298;2023-03-23T07:54:24;11.80;99.90
20915;DHT22;10617;52.032;5.298;2023-03-23T07:58:25;11.90;99.90
20915;DHT22;10617;52.032;5.298;2023-03-23T08:02:26;11.90;99.90
20915;DHT22;10617;52.032;5.298;2023-03-23T08:06:27;12.00;99.90
20915;DHT22;10617;52.032;5.298;2023-03-23T08:10:28;12.00;99.90
20915;DHT22;10617;52.032;5.298;2023-03-23T08:14:28;12.00;99.90
20915;DHT22;10617;52.032;5.298;2023-03-23T08:18:30;12.00;99.90
20915;DHT22;10617;52.032;5.298;2023-03-23T08:22:31;12.00;99.90
20915;DHT22;10617;52.032;5.298;2023-03-23T08:26:31;12.00;99.90
20915;DHT22;10617;52.032;5.298;2023-03-23T08:30:32;12.00;99.90
20915;DHT22;10617;52.032;5.298;2023-03-23T08:34:34;12.00;99.90
20915;DHT22;10617;52.032;5.298;2023-03-23T08:38:34;12.10;99.90
20915;DHT22;10617;52.032;5.298;2023-03-23T08:42:38;12.20;99.90
20915;DHT22;10617;52.032;5.298;2023-03-23T08:46:39;12.30;99.90
20915;DHT22;10617;52.032;5.298;2023-03-23T08:50:39;12.30;99.90
20915;DHT22;10617;52.032;5.298;2023-03-23T08:54:41;12.30;99.90
20915;DHT22;10617;52.032;5.298;2023-03-23T08:58:41;12.40;99.90
20915;DHT22;10617;52.032;5.298;2023-03-23T09:02:43;12.50;99.90
20915;DHT22;10617;52.032;5.298;2023-03-23T09:06:44;12.70;99.90
20915;DHT22;10617;52.032;5.298;2023-03-23T09:10:46;12.90;99.90
20915;DHT22;10617;52.032;5.298;2023-03-23T09:14:46;13.00;99.90
20915;DHT22;10617;52.032;5.298;2023-03-23T09:18:47;13.10;99.90
20915;DHT22;10617;52.032;5.298;2023-03-23T09:22:49;13.20;99.90
20915;DHT22;10617;52.032;5.298;2023-03-23T09:26:50;13.40;99.90
20915;DHT22;10617;52.032;5.298;2023-03-23T09:30:50;13.50;99.90
20915;DHT22;10617;52.032;5.298;2023-03-23T09:34:51;13.50;99.90
20915;DHT22;10617;52.032;5.298;2023-03-23T09:38:55;13.70;99.90
20915;DHT22;10617;52.032;5.298;2023-03-23T09:43:09;13.80;99.90
20915;DHT22;10617;52.032;5.298;2023-03-23T09:47:24;13.90;99.90
20915;DHT22;10617;52.032;5.298;2023-03-23T09:55:39;14.10;99.90
20915;DHT22;10617;52.032;5.298;2023-03-23T09:59:49;13.90;99.90
20915;DHT22;10617;52.032;5.298;2023-03-23T10:03:52;13.90;99.90
20915;DHT22;10617;52.032;5.298;2023-03-23T10:07:56;14.00;99.90
20915;DHT22;10617;52.032;5.298;2023-03-23T10:15:57;14.50;99.90
20915;DHT22;10617;52.032;5.298;2023-03-23T10:20:19;14.50;99.90
20915;DHT22;10617;52.032;5.298;2023-03-23T10:24:23;14.60;99.90
20915;DHT22;10617;52.032;5.298;2023-03-23T10:32:58;15.00;99.90
20915;DHT22;10617;52.032;5.298;2023-03-23T10:41:00;14.70;99.90
20915;DHT22;10617;52.032;5.298;2023-03-23T10:45:13;14.80;99.90
20915;DHT22;10617;52.032;5.298;2023-03-23T10:49:18;14.60;99.90
20915;DHT22;10617;52.032;5.298;2023-03-23T10:53:21;14.40;99.90
20915;DHT22;10617;52.032;5.298;2023-03-23T11:01:29;14.80;99.90
20915;DHT22;10617;52.032;5.298;2023-03-23T11:05:35;15.20;99.90
20915;DHT22;10617;52.032;5.298;2023-03-23T11:09:37;15.10;99.90
20915;DHT22;10617;52.032;5.298;2023-03-23T11:13:40;15.00;99.90
20915;DHT22;10617;52.032;5.298;2023-03-23T11:17:42;14.90;99.90
20915;DHT22;10617;52.032;5.298;2023-03-23T11:21:47;14.60;99.90
20915;DHT22;10617;52.032;5.298;2023-03-23T11:25:55;15.10;99.90
20915;DHT22;10617;52.032;5.298;2023-03-23T11:29:59;15.90;99.90
20915;DHT22;10617;52.032;5.298;2023-03-23T11:34:02;16.40;99.90
20915;DHT22;10617;52.032;5.298;2023-03-23T11:38:04;16.40;99.90
20915;DHT22;10617;52.032;5.298;2023-03-23T11:42:23;16.00;99.90
20915;DHT22;10617;52.032;5.298;2023-03-23T11:50:44;15.00;99.90
20915;DHT22;10617;52.032;5.298;2023-03-23T11:55:03;14.70;99.90
20915;DHT22;10617;52.032;5.298;2023-03-23T11:59:26;14.50;99.90
20915;DHT22;10617;52.032;5.298;2023-03-23T12:20:12;13.60;99.90
20915;DHT22;10617;52.032;5.298;2023-03-23T12:44:56;14.50;99.90
20915;DHT22;10617;52.032;5.298;2023-03-23T12:49:01;14.90;99.90
20915;DHT22;10617;52.032;5.298;2023-03-23T12:53:16;15.40;99.90
20915;DHT22;10617;52.032;5.298;2023-03-23T13:01:20;15.60;99.90
20915;DHT22;10617;52.032;5.298;2023-03-23T13:09:29;15.30;99.90
20915;DHT22;10617;52.032;5.298;2023-03-23T13:13:40;15.10;99.90
20915;DHT22;10617;52.032;5.298;2023-03-23T13:17:53;15.00;99.90
20915;DHT22;10617;52.032;5.298;2023-03-23T13:26:00;15.20;99.90
20915;DHT22;10617;52.032;5.298;2023-03-23T13:30:01;15.20;99.90
20915;DHT22;10617;52.032;5.298;2023-03-23T13:38:43;15.30;99.90
20915;DHT22;10617;52.032;5.298;2023-03-23T13:42:32;15.20;99.90
20915;DHT22;10617;52.032;5.298;2023-03-23T13:46:36;15.00;99.90
20915;DHT22;10617;52.032;5.298;2023-03-23T13:50:44;14.90;99.90
20915;DHT22;10617;52.032;5.298;2023-03-23T13:54:46;14.90;99.90
20915;DHT22;10617;52.032;5.298;2023-03-23T13:58:48;14.50;99.90
20915;DHT22;10617;52.032;5.298;2023-03-23T14:02:49;14.10;99.90
20915;DHT22;10617;52.032;5.298;2023-03-23T14:06:50;13.70;99.90
20915;DHT22;10617;52.032;5.298;2023-03-23T14:10:52;13.60;99.90
20915;DHT22;10617;52.032;5.298;2023-03-23T14:14:57;14.00;99.90
20915;DHT22;10617;52.032;5.298;2023-03-23T14:19:03;14.60;99.90
20915;DHT22;10617;52.032;5.298;2023-03-23T14:23:03;15.20;99.90
20915;DHT22;10617;52.032;5.298;2023-03-23T14:31:25;16.50;99.90
20915;DHT22;10617;52.032;5.298;2023-03-23T14:35:31;17.20;99.90
20915;DHT22;10617;52.032;5.298;2023-03-23T14:39:32;18.10;99.90
20915;DHT22;10617;52.032;5.298;2023-03-23T14:43:34;18.60;99.90
20915;DHT22;10617;52.032;5.298;2023-03-23T14:47:37;18.80;99.90
20915;DHT22;10617;52.032;5.298;2023-03-23T14:51:46;18.70;99.90
20915;DHT22;10617;52.032;5.298;2023-03-23T14:55:47;18.80;99.90
20915;DHT22;10617;52.032;5.298;2023-03-23T14:59:48;19.20;99.90
20915;DHT22;10617;52.032;5.298;2023-03-23T15:03:53;19.90;99.90
20915;DHT22;10617;52.032;5.298;2023-03-23T15:07:55;20.10;99.90
20915;DHT22;10617;52.032;5.298;2023-03-23T15:12:01;20.10;99.90
20915;DHT22;10617;52.032;5.298;2023-03-23T15:16:06;20.10;99.90
20915;DHT22;10617;52.032;5.298;2023-03-23T15:20:22;19.90;99.90
20915;DHT22;10617;52.032;5.298;2023-03-23T15:24:27;19.40;99.90
20915;DHT22;10617;52.032;5.298;2023-03-23T15:28:29;19.20;99.90
20915;DHT22;10617;52.032;5.298;2023-03-23T15:32:36;19.40;99.90
20915;DHT22;10617;52.032;5.298;2023-03-23T15:36:37;19.30;99.90
20915;DHT22;10617;52.032;5.298;2023-03-23T15:40:38;18.90;99.90
20915;DHT22;10617;52.032;5.298;2023-03-23T15:44:39;18.80;99.90
20915;DHT22;10617;52.032;5.298;2023-03-23T15:52:47;19.10;99.90
20915;DHT22;10617;52.032;5.298;2023-03-23T15:56:48;19.00;99.90
20915;DHT22;10617;52.032;5.298;2023-03-23T16:00:49;18.50;99.90
20915;DHT22;10617;52.032;5.298;2023-03-23T16:04:51;18.20;99.90
20915;DHT22;10617;52.032;5.298;2023-03-23T16:08:53;18.00;99.90
20915;DHT22;10617;52.032;5.298;2023-03-23T16:12:55;17.60;99.90
20915;DHT22;10617;52.032;5.298;2023-03-23T16:16:57;17.30;99.90
20915;DHT22;10617;52.032;5.298;2023-03-23T16:20:59;17.00;99.90
20915;DHT22;10617;52.032;5.298;2023-03-23T16:25:02;16.70;99.90
20915;DHT22;10617;52.032;5.298;2023-03-23T16:29:08;16.60;99.90
20915;DHT22;10617;52.032;5.298;2023-03-23T16:33:17;16.40;99.90
20915;DHT22;10617;52.032;5.298;2023-03-23T16:37:19;16.40;99.90
20915;DHT22;10617;52.032;5.298;2023-03-23T16:41:21;16.40;99.90
20915;DHT22;10617;52.032;5.298;2023-03-23T16:45:22;16.30;99.90
20915;DHT22;10617;52.032;5.298;2023-03-23T16:49:24;16.20;99.90
20915;DHT22;10617;52.032;5.298;2023-03-23T16:53:26;16.10;99.90
20915;DHT22;10617;52.032;5.298;2023-03-23T16:57:28;16.10;99.90
20915;DHT22;10617;52.032;5.298;2023-03-23T17:01:30;16.10;99.90
20915;DHT22;10617;52.032;5.298;2023-03-23T17:05:32;16.00;99.90
20915;DHT22;10617;52.032;5.298;2023-03-23T17:09:35;16.00;99.90
20915;DHT22;10617;52.032;5.298;2023-03-23T17:13:37;15.90;99.90
20915;DHT22;10617;52.032;5.298;2023-03-23T17:17:39;15.90;99.90
20915;DHT22;10617;52.032;5.298;2023-03-23T17:21:40;15.80;99.90
20915;DHT22;10617;52.032;5.298;2023-03-23T17:25:43;15.70;99.90
20915;DHT22;10617;52.032;5.298;2023-03-23T17:29:46;15.60;99.90
20915;DHT22;10617;52.032;5.298;2023-03-23T17:33:48;15.50;99.90
20915;DHT22;10617;52.032;5.298;2023-03-23T17:37:50;15.40;99.90
20915;DHT22;10617;52.032;5.298;2023-03-23T17:41:51;15.40;99.90
20915;DHT22;10617;52.032;5.298;2023-03-23T17:45:53;15.30;99.90
20915;DHT22;10617;52.032;5.298;2023-03-23T17:49:55;15.20;99.90
20915;DHT22;10617;52.032;5.298;2023-03-23T17:53:57;15.10;99.90
20915;DHT22;10617;52.032;5.298;2023-03-23T17:57:59;15.10;99.90
20915;DHT22;10617;52.032;5.298;2023-03-23T18:02:00;15.00;99.90
20915;DHT22;10617;52.032;5.298;2023-03-23T18:06:03;15.00;99.90
20915;DHT22;10617;52.032;5.298;2023-03-23T18:10:05;14.90;99.90
20915;DHT22;10617;52.032;5.298;2023-03-23T18:14:13;14.90;99.90
20915;DHT22;10617;52.032;5.298;2023-03-23T18:18:15;14.90;99.90
20915;DHT22;10617;52.032;5.298;2023-03-23T18:22:16;14.80;99.90
20915;DHT22;10617;52.032;5.298;2023-03-23T18:26:18;14.80;99.90
20915;DHT22;10617;52.032;5.298;2023-03-23T18:30:22;14.80;99.90
20915;DHT22;10617;52.032;5.298;2023-03-23T18:34:24;14.80;99.90
20915;DHT22;10617;52.032;5.298;2023-03-23T18:38:26;14.70;99.90
20915;DHT22;10617;52.032;5.298;2023-03-23T18:42:28;14.70;99.90
20915;DHT22;10617;52.032;5.298;2023-03-23T18:46:29;14.70;99.90
20915;DHT22;10617;52.032;5.298;2023-03-23T18:50:31;14.70;99.90
20915;DHT22;10617;52.032;5.298;2023-03-23T18:54:33;14.60;99.90
20915;DHT22;10617;52.032;5.298;2023-03-23T18:58:35;14.60;99.90
20915;DHT22;10617;52.032;5.298;2023-03-23T19:02:37;14.60;99.90
20915;DHT22;10617;52.032;5.298;2023-03-23T19:06:40;14.50;99.90
20915;DHT22;10617;52.032;5.298;2023-03-23T19:10:42;14.50;99.90
20915;DHT22;10617;52.032;5.298;2023-03-23T19:14:43;14.50;99.90
20915;DHT22;10617;52.032;5.298;2023-03-23T19:18:45;14.40;99.90
20915;DHT22;10617;52.032;5.298;2023-03-23T19:22:47;14.40;99.90
20915;DHT22;10617;52.032;5.298;2023-03-23T19:26:48;14.40;99.90
20915;DHT22;10617;52.032;5.298;2023-03-23T19:30:55;14.40;99.90
20915;DHT22;10617;52.032;5.298;2023-03-23T19:34:57;14.30;99.90
20915;DHT22;10617;52.032;5.298;2023-03-23T19:38:59;14.30;99.90
20915;DHT22;10617;52.032;5.298;2023-03-23T19:43:03;14.20;99.90
20915;DHT22;10617;52.032;5.298;2023-03-23T19:47:06;14.20;99.90
20915;DHT22;10617;52.032;5.298;2023-03-23T19:51:09;14.10;99.90
20915;DHT22;10617;52.032;5.298;2023-03-23T19:55:11;14.00;99.90
20915;DHT22;10617;52.032;5.298;2023-03-23T19:59:13;13.90;99.90
20915;DHT22;10617;52.032;5.298;2023-03-23T20:03:16;13.90;99.90
20915;DHT22;10617;52.032;5.298;2023-03-23T20:07:18;13.80;99.90
20915;DHT22;10617;52.032;5.298;2023-03-23T20:11:21;13.70;99.90
20915;DHT22;10617;52.032;5.298;2023-03-23T20:15:23;13.60;99.90
20915;DHT22;10617;52.032;5.298;2023-03-23T20:19:25;13.50;99.90
20915;DHT22;10617;52.032;5.298;2023-03-23T20:23:27;13.40;99.90
20915;DHT22;10617;52.032;5.298;2023-03-23T20:27:29;13.40;99.90
20915;DHT22;10617;52.032;5.298;2023-03-23T20:31:31;13.30;99.90
20915;DHT22;10617;52.032;5.298;2023-03-23T20:35:36;13.20;99.90
20915;DHT22;10617;52.032;5.298;2023-03-23T20:39:38;13.10;99.90
20915;DHT22;10617;52.032;5.298;2023-03-23T20:43:43;13.10;99.90
20915;DHT22;10617;52.032;5.298;2023-03-23T20:47:44;13.10;99.90
20915;DHT22;10617;52.032;5.298;2023-03-23T20:51:46;13.00;99.90
20915;DHT22;10617;52.032;5.298;2023-03-23T20:55:48;13.00;99.90
20915;DHT22;10617;52.032;5.298;2023-03-23T20:59:52;13.00;99.90
20915;DHT22;10617;52.032;5.298;2023-03-23T21:03:53;13.00;99.90
20915;DHT22;10617;52.032;5.298;2023-03-23T21:07:57;13.00;99.90
20915;DHT22;10617;52.032;5.298;2023-03-23T21:11:59;13.00;99.90
20915;DHT22;10617;52.032;5.298;2023-03-23T21:16:00;13.00;99.90
20915;DHT22;10617;52.032;5.298;2023-03-23T21:20:04;13.00;99.90
20915;DHT22;10617;52.032;5.298;2023-03-23T21:24:07;13.00;99.90
20915;DHT22;10617;52.032;5.298;2023-03-23T21:28:09;13.00;99.90
20915;DHT22;10617;52.032;5.298;2023-03-23T21:32:11;12.90;99.90
20915;DHT22;10617;52.032;5.298;2023-03-23T21:36:13;12.90;99.90
20915;DHT22;10617;52.032;5.298;2023-03-23T21:40:15;12.90;99.90
20915;DHT22;10617;52.032;5.298;2023-03-23T21:44:18;12.90;99.90
20915;DHT22;10617;52.032;5.298;2023-03-23T21:48:19;12.90;99.90
20915;DHT22;10617;52.032;5.298;2023-03-23T21:52:22;12.80;99.90
20915;DHT22;10617;52.032;5.298;2023-03-23T21:56:24;12.80;99.90
20915;DHT22;10617;52.032;5.298;2023-03-23T22:00:27;12.80;99.90
20915;DHT22;10617;52.032;5.298;2023-03-23T22:04:30;12.80;99.90
20915;DHT22;10617;52.032;5.298;2023-03-23T22:08:31;12.70;99.90
20915;DHT22;10617;52.032;5.298;2023-03-23T22:12:34;12.60;99.90
20915;DHT22;10617;52.032;5.298;2023-03-23T22:16:35;12.60;99.90
20915;DHT22;10617;52.032;5.298;2023-03-23T22:20:37;12.50;99.90
20915;DHT22;10617;52.032;5.298;2023-03-23T22:24:40;12.50;99.90
20915;DHT22;10617;52.032;5.298;2023-03-23T22:28:42;12.40;99.90
20915;DHT22;10617;52.032;5.298;2023-03-23T22:32:44;12.40;99.90
20915;DHT22;10617;52.032;5.298;2023-03-23T22:36:46;12.30;99.90
20915;DHT22;10617;52.032;5.298;2023-03-23T22:40:57;12.30;99.90
20915;DHT22;10617;52.032;5.298;2023-03-23T22:44:59;12.30;99.90
20915;DHT22;10617;52.032;5.298;2023-03-23T22:49:00;12.20;99.90
20915;DHT22;10617;52.032;5.298;2023-03-23T22:53:02;12.10;99.90
20915;DHT22;10617;52.032;5.298;2023-03-23T22:57:04;12.10;99.90
20915;DHT22;10617;52.032;5.298;2023-03-23T23:01:07;12.10;99.90
20915;DHT22;10617;52.032;5.298;2023-03-23T23:05:09;12.00;99.90
20915;DHT22;10617;52.032;5.298;2023-03-23T23:09:11;12.00;99.90
20915;DHT22;10617;52.032;5.298;2023-03-23T23:13:13;12.00;99.90
20915;DHT22;10617;52.032;5.298;2023-03-23T23:22:18;11.90;99.90
20915;DHT22;10617;52.032;5.298;2023-03-23T23:26:20;11.90;99.90
20915;DHT22;10617;52.032;5.298;2023-03-23T23:30:21;11.90;99.90
20915;DHT22;10617;52.032;5.298;2023-03-23T23:34:23;11.90;99.90
20915;DHT22;10617;52.032;5.298;2023-03-23T23:38:25;11.90;99.90
20915;DHT22;10617;52.032;5.298;2023-03-23T23:42:27;11.90;99.90
20915;DHT22;10617;52.032;5.298;2023-03-23T23:46:29;11.90;99.90
20915;DHT22;10617;52.032;5.298;2023-03-23T23:50:31;11.90;99.90
20915;DHT22;10617;52.032;5.298;2023-03-23T23:54:33;11.90;99.90
20915;DHT22;10617;52.032;5.298;2023-03-23T23:58:38;11.90;99.90
